createdAt,value
2022-09-10T00:00:43.422Z,0.00
2022-09-10T00:05:45.611Z,0.00
2022-09-10T00:10:44.912Z,0.00
2022-09-10T00:15:46.003Z,0.00
2022-09-10T00:20:47.174Z,0.00
2022-09-10T00:25:48.362Z,0.00
2022-09-10T00:30:50.452Z,0.00
2022-09-10T00:35:49.570Z,0.00
2022-09-10T00:40:50.663Z,0.00
2022-09-10T00:45:51.912Z,0.00
2022-09-10T00:50:53.171Z,0.00
2022-09-10T00:55:53.291Z,0.00
2022-09-10T01:00:54.505Z,0.00
2022-09-10T01:05:56.587Z,0.00
2022-09-10T01:10:56.668Z,0.00
2022-09-10T01:15:55.875Z,0.00
2022-09-10T01:20:56.960Z,0.00
2022-09-10T01:25:58.130Z,0.00
2022-09-10T01:30:59.205Z,0.00
2022-09-10T01:36:00.373Z,0.00
2022-09-10T01:41:01.484Z,0.00
2022-09-10T01:46:02.740Z,0.00
2022-09-10T01:51:03.976Z,0.00
2022-09-10T01:56:05.218Z,0.00
2022-09-10T02:01:06.537Z,0.00
2022-09-10T02:06:07.704Z,0.00
2022-09-10T02:11:08.885Z,0.00
2022-09-10T02:16:10.372Z,0.00
2022-09-10T02:21:08.447Z,0.00
2022-09-10T02:26:09.955Z,0.00
2022-09-10T02:31:10.118Z,0.00
2022-09-10T02:36:09.261Z,0.00
2022-09-10T02:41:10.473Z,0.00
2022-09-10T02:46:12.587Z,0.00
2022-09-10T02:51:11.749Z,0.00
2022-09-10T02:56:12.881Z,0.00
2022-09-10T03:01:14.096Z,0.00
2022-09-10T03:06:14.296Z,0.00
2022-09-10T03:11:15.488Z,0.00
2022-09-10T03:16:16.804Z,0.00
2022-09-10T03:21:18.034Z,0.00
2022-09-10T03:26:19.121Z,0.00
2022-09-10T03:31:20.310Z,0.00
2022-09-10T03:36:22.452Z,0.00
2022-09-10T03:41:21.701Z,0.00
2022-09-10T03:46:22.955Z,0.00
2022-09-10T03:51:24.214Z,0.00
2022-09-10T03:56:25.495Z,0.00
2022-09-10T04:01:26.850Z,0.00
2022-09-10T04:06:27.925Z,0.00
2022-09-10T04:11:29.029Z,0.00
2022-09-10T04:16:30.143Z,0.00
2022-09-10T04:21:31.401Z,0.00
2022-09-10T04:26:33.525Z,0.00
2022-09-10T04:31:32.760Z,0.00
2022-09-10T04:36:34.005Z,0.00
2022-09-10T04:41:36.107Z,0.00
2022-09-10T04:46:35.224Z,0.00
2022-09-10T04:51:36.404Z,0.00
2022-09-10T04:56:38.579Z,0.00
2022-09-10T05:01:37.686Z,5.62
2022-09-10T05:06:38.795Z,0.00
2022-09-10T05:11:39.967Z,5.62
2022-09-10T05:16:42.165Z,16.88
2022-09-10T05:21:41.239Z,11.25
2022-09-10T05:26:42.335Z,16.88
2022-09-10T05:31:43.451Z,16.88
2022-09-10T05:36:44.521Z,22.50
2022-09-10T05:41:45.761Z,33.75
2022-09-10T05:46:47.863Z,61.88
2022-09-10T05:51:47.075Z,67.50
2022-09-10T05:56:48.296Z,90.00
2022-09-10T06:01:50.435Z,90.00
2022-09-10T06:06:49.698Z,118.12
2022-09-10T06:11:50.779Z,174.38
2022-09-10T06:16:52.174Z,163.12
2022-09-10T06:21:54.317Z,225.00
2022-09-10T06:26:53.418Z,292.50
2022-09-10T06:31:54.707Z,151.88
2022-09-10T06:36:55.874Z,90.00
2022-09-10T06:41:57.995Z,73.12
2022-09-10T06:47:39.420Z,67.50
2022-09-10T06:51:57.148Z,84.38
2022-09-10T06:57:00.260Z,101.25
2022-09-10T07:01:59.395Z,73.12
2022-09-10T07:07:00.676Z,73.12
2022-09-10T07:12:03.747Z,90.00
2022-09-10T07:17:03.837Z,95.62
2022-09-10T07:22:03.920Z,112.50
2022-09-10T07:27:03.008Z,118.12
2022-09-10T07:32:04.140Z,101.25
2022-09-10T07:37:05.250Z,112.50
2022-09-10T07:42:06.346Z,90.00
2022-09-10T07:47:07.635Z,157.50
2022-09-10T07:52:09.771Z,202.50
2022-09-10T07:57:08.858Z,213.75
2022-09-10T08:02:10.008Z,247.50
2022-09-10T08:07:12.089Z,264.38
2022-09-10T08:12:12.187Z,309.38
2022-09-10T08:17:11.281Z,309.38
2022-09-10T08:22:13.620Z,247.50
2022-09-10T08:27:12.873Z,281.25
2022-09-10T08:32:13.994Z,298.12
2022-09-10T08:37:15.137Z,191.25
2022-09-10T08:42:22.123Z,174.38
2022-09-10T08:47:18.216Z,208.12
2022-09-10T08:52:17.454Z,225.00
2022-09-10T08:57:18.656Z,253.12
2022-09-10T09:02:44.930Z,185.62
2022-09-10T09:07:20.711Z,163.12
2022-09-10T09:12:21.802Z,230.62
2022-09-10T09:17:26.222Z,258.75
2022-09-10T09:22:23.328Z,292.50
2022-09-10T09:27:23.415Z,326.25
2022-09-10T09:32:24.550Z,315.00
2022-09-10T09:37:25.637Z,292.50
2022-09-10T09:42:28.755Z,241.88
2022-09-10T09:47:27.889Z,275.62
2022-09-10T09:52:28.988Z,376.88
2022-09-10T09:57:30.097Z,416.25
2022-09-10T10:02:31.248Z,298.12
2022-09-10T10:07:33.393Z,213.75
2022-09-10T10:12:34.498Z,191.25
2022-09-10T10:17:35.700Z,185.62
2022-09-10T10:22:34.825Z,196.88
2022-09-10T10:27:37.925Z,208.12
2022-09-10T10:32:38.044Z,247.50
2022-09-10T10:37:38.130Z,281.25
2022-09-10T10:42:37.217Z,427.50
2022-09-10T10:47:39.303Z,478.12
2022-09-10T10:52:38.454Z,472.50
2022-09-10T10:57:39.554Z,410.62
2022-09-10T11:02:40.689Z,511.88
2022-09-10T11:07:41.993Z,540.00
2022-09-10T11:12:43.398Z,686.25
2022-09-10T11:17:44.508Z,697.50
2022-09-10T11:22:46.736Z,725.62
2022-09-10T11:27:46.982Z,573.75
2022-09-10T11:32:46.057Z,551.25
2022-09-10T11:37:47.154Z,562.50
2022-09-10T11:42:48.411Z,641.25
2022-09-10T11:47:49.489Z,725.62
2022-09-10T11:52:50.705Z,686.25
2022-09-10T11:57:52.824Z,596.25
2022-09-10T12:02:51.914Z,601.88
2022-09-10T12:07:54.011Z,579.38
2022-09-10T12:12:53.137Z,607.50
2022-09-10T12:17:54.407Z,663.75
2022-09-10T12:22:55.486Z,540.00
2022-09-10T12:27:56.581Z,495.00
2022-09-10T12:32:57.703Z,478.12
2022-09-10T12:37:59.810Z,365.62
2022-09-10T12:42:59.011Z,416.25
2022-09-10T12:48:01.268Z,365.62
2022-09-10T12:53:02.375Z,444.38
2022-09-10T12:58:02.502Z,489.38
2022-09-10T13:03:02.597Z,478.12
2022-09-10T13:08:05.969Z,472.50
2022-09-10T13:13:04.057Z,427.50
2022-09-10T13:18:03.178Z,354.38
2022-09-10T13:23:04.389Z,202.50
2022-09-10T13:28:05.566Z,286.88
2022-09-10T13:33:06.680Z,438.75
2022-09-10T13:38:07.779Z,393.75
2022-09-10T13:43:09.864Z,258.75
2022-09-10T13:48:08.971Z,151.88
2022-09-10T13:53:10.081Z,230.62
2022-09-10T13:58:11.170Z,427.50
2022-09-10T14:03:13.262Z,416.25
2022-09-10T14:08:13.367Z,365.62
2022-09-10T14:13:13.489Z,455.62
2022-09-10T14:18:12.638Z,495.00
2022-09-10T14:23:13.776Z,461.25
2022-09-10T14:28:15.889Z,438.75
2022-09-10T14:33:15.956Z,405.00
2022-09-10T14:38:16.075Z,388.12
2022-09-10T14:43:16.224Z,393.75
2022-09-10T14:48:15.515Z,405.00
2022-09-10T14:53:16.625Z,421.88
2022-09-10T14:58:17.752Z,393.75
2022-09-10T15:03:18.867Z,303.75
2022-09-10T15:08:19.991Z,410.62
2022-09-10T15:13:21.190Z,253.12
2022-09-10T15:18:22.339Z,455.62
2022-09-10T15:23:23.469Z,236.25
2022-09-10T15:28:24.847Z,202.50
2022-09-10T15:33:27.109Z,146.25
2022-09-10T15:38:27.395Z,135.00
2022-09-10T15:43:26.697Z,112.50
2022-09-10T15:48:27.960Z,90.00
2022-09-10T15:53:29.160Z,123.75
2022-09-10T15:58:31.239Z,151.88
2022-09-10T16:03:30.395Z,174.38
2022-09-10T16:08:31.690Z,135.00
2022-09-10T16:13:32.923Z,78.75
2022-09-10T16:18:34.024Z,50.62
2022-09-10T16:23:35.274Z,45.00
2022-09-10T16:28:36.739Z,50.62
2022-09-10T16:33:35.839Z,45.00
2022-09-10T16:38:37.175Z,33.75
2022-09-10T16:43:38.409Z,45.00
2022-09-10T16:48:39.667Z,61.88
2022-09-10T16:53:41.899Z,73.12
2022-09-10T16:58:41.120Z,61.88
2022-09-10T17:03:42.215Z,50.62
2022-09-10T17:08:43.427Z,56.25
2022-09-10T17:13:45.521Z,50.62
2022-09-10T17:18:44.750Z,28.12
2022-09-10T17:23:45.843Z,16.88
2022-09-10T17:28:47.065Z,11.25
2022-09-10T17:33:48.166Z,5.62
2022-09-10T17:38:49.444Z,5.62
2022-09-10T17:43:50.703Z,0.00
2022-09-10T17:48:51.956Z,0.00
2022-09-10T17:53:54.050Z,0.00
2022-09-10T17:58:53.295Z,0.00
2022-09-10T18:03:55.409Z,0.00
2022-09-10T18:08:53.656Z,0.00
2022-09-10T18:13:54.940Z,0.00
2022-09-10T18:18:56.139Z,0.00
2022-09-10T18:23:57.399Z,0.00
2022-09-10T18:28:58.972Z,0.00
2022-09-10T18:33:58.425Z,0.00
2022-09-10T18:38:59.774Z,0.00
2022-09-10T18:44:01.241Z,0.00
2022-09-10T18:49:00.647Z,0.00
2022-09-10T18:54:02.077Z,0.00
2022-09-10T18:59:04.328Z,0.00
2022-09-10T19:04:04.645Z,0.00
2022-09-10T19:09:03.762Z,0.00
2022-09-10T19:14:04.908Z,0.00
2022-09-10T19:19:06.289Z,0.00
2022-09-10T19:24:08.526Z,0.00
2022-09-10T19:29:07.789Z,0.00
2022-09-10T19:34:09.266Z,0.00
2022-09-10T19:39:09.407Z,0.00
2022-09-10T19:44:08.771Z,0.00
2022-09-10T19:49:10.084Z,0.00
2022-09-10T19:54:11.344Z,0.00
2022-09-10T19:59:12.590Z,0.00
2022-09-10T20:04:13.828Z,0.00
2022-09-10T20:09:15.059Z,0.00
2022-09-10T20:14:17.305Z,0.00
2022-09-10T20:19:17.493Z,0.00
2022-09-10T20:24:17.638Z,0.00
2022-09-10T20:29:17.740Z,0.00
2022-09-10T20:34:16.850Z,0.00
2022-09-10T20:39:17.995Z,0.00
2022-09-10T20:44:19.116Z,0.00
2022-09-10T20:49:20.405Z,0.00
2022-09-10T20:54:21.613Z,0.00
2022-09-10T20:59:27.566Z,0.00
2022-09-10T21:04:24.005Z,0.00
2022-09-10T21:09:23.122Z,0.00
2022-09-10T21:14:24.213Z,0.00
2022-09-10T21:19:27.319Z,0.00
2022-09-10T21:24:26.415Z,0.00
2022-09-10T21:29:28.552Z,0.00
2022-09-10T21:34:27.811Z,0.00
2022-09-10T21:39:28.900Z,0.00
2022-09-10T21:44:30.128Z,0.00
2022-09-10T21:49:31.346Z,0.00
2022-09-10T21:54:32.536Z,0.00
2022-09-10T21:59:33.643Z,0.00
2022-09-10T22:04:35.757Z,0.00
2022-09-10T22:09:36.061Z,0.00
2022-09-10T22:14:35.216Z,0.00
2022-09-10T22:19:36.391Z,0.00
2022-09-10T22:24:37.517Z,0.00
2022-09-10T22:29:39.834Z,0.00
2022-09-10T22:34:40.971Z,0.00
2022-09-10T22:39:41.114Z,0.00
2022-09-10T22:44:40.299Z,0.00
2022-09-10T22:49:41.426Z,0.00
2022-09-10T22:54:42.515Z,0.00
2022-09-10T22:59:44.624Z,0.00
2022-09-10T23:04:43.760Z,0.00
2022-09-10T23:09:45.010Z,0.00
2022-09-10T23:14:46.148Z,0.00
2022-09-10T23:19:47.229Z,0.00
2022-09-10T23:24:48.319Z,0.00
2022-09-10T23:29:49.592Z,0.00
2022-09-10T23:34:50.741Z,0.00
2022-09-10T23:39:51.878Z,0.00
2022-09-10T23:44:53.999Z,0.00
2022-09-10T23:49:54.121Z,0.00
2022-09-10T23:54:53.178Z,0.00
2022-09-10T23:59:54.281Z,0.00
